Nearby METAR Reports

 

KMSY - New Orleans,Louisiana, USA
Distance from station: E 11.7mi, 18.8km
Updated: Thu, 19-Jul-2018 8:53pm CDT
Mostly cloudy
Mostly cloudy
 Wind from ESE
Wind: ESE 7 mph , 11 km/h
Temperature: 86°F , 30°C
Heat Index: 95°F , 35°C
Dew Point: 75°F , 24°C
Humidity: 70%
Barometer: 29.91 inHg , 1012.9 hPa
Clouds: Mostly cloudy
Visibility: 10 miles , 16 km
Cloud details: Few Clouds 4000 ft
Mostly cloudy 15000 ft
Mostly cloudy 25000 ft
2018/07/20 01:53 KMSY 200153Z 11006KT 10SM FEW040 BKN150 BKN250 30/24 A2991 RMK AO2 SLP131 VCSH E T03000244
KAPS - Reserve,Louisiana, USA
Distance from station: W 8.4mi, 13.5km
Updated: Thu, 19-Jul-2018 9:15pm CDT

 Wind from calm
Wind: Calm
Temperature: 86°F , 30°C
Heat Index: 97°F , 36°C
Dew Point: 77°F , 25°C
Humidity: 75%
Barometer: 29.92 inHg , 1013.2 hPa
Visibility: 7 miles , 11 km
2018/07/20 02:15 KAPS 200215Z AUTO 00000KT 7SM 30/25 A2992 RMK AO2 T02980251
 
KHDC - Hammond,Louisiana, USA
Distance from station: N 31.5mi, 50.6km
Updated: Thu, 19-Jul-2018 9:15pm CDT
Clear
Clear
 Wind from calm
Wind: Calm
Temperature: 79°F , 26°C
Dew Point: 73°F , 23°C
Humidity: 84%
Barometer: 29.91 inHg , 1012.9 hPa
Clouds: Clear
Visibility: 10 miles , 16 km
2018/07/20 02:15 KHDC 200215Z AUTO 00000KT 10SM CLR 26/23 A2991 RMK AO2
KHUM - Houma,Louisiana, USA
Distance from station: SW 36.54mi, 58.8km
Updated: Thu, 19-Jul-2018 9:15pm CDT
Clear
Clear
 Wind from WSW
Wind: WSW 5 mph , 7 km/h
Temperature: 82°F , 28°C
Heat Index: 91°F , 33°C
Dew Point: 79°F , 26°C
Humidity: 89%
Barometer: 29.93 inHg , 1013.5 hPa
Clouds: Clear
Visibility: 10 miles , 16 km
2018/07/20 02:15 KHUM 200215Z AUTO 25004KT 10SM CLR 28/26 A2993 RMK AO2 T02800257